sensor_id;sensor_type;location;lat;lon;timestamp;temperature;humidity
64396;DHT22;50717;53.360;6.290;2023-07-28T00:01:57;18.60;99.90
64396;DHT22;50717;53.360;6.290;2023-07-28T00:04:22;18.30;99.90
64396;DHT22;50717;53.360;6.290;2023-07-28T00:06:48;17.50;99.90
64396;DHT22;50717;53.360;6.290;2023-07-28T00:09:14;18.10;99.90
64396;DHT22;50717;53.360;6.290;2023-07-28T00:11:39;17.90;99.90
64396;DHT22;50717;53.360;6.290;2023-07-28T00:14:05;18.40;99.90
64396;DHT22;50717;53.360;6.290;2023-07-28T00:16:31;18.00;99.90
64396;DHT22;50717;53.360;6.290;2023-07-28T00:18:56;18.30;99.90
64396;DHT22;50717;53.360;6.290;2023-07-28T00:21:22;17.80;99.90
64396;DHT22;50717;53.360;6.290;2023-07-28T00:23:48;18.00;99.90
64396;DHT22;50717;53.360;6.290;2023-07-28T00:26:14;17.50;99.90
64396;DHT22;50717;53.360;6.290;2023-07-28T00:28:39;18.00;99.90
64396;DHT22;50717;53.360;6.290;2023-07-28T00:31:05;18.10;99.90
64396;DHT22;50717;53.360;6.290;2023-07-28T00:33:31;18.40;99.90
64396;DHT22;50717;53.360;6.290;2023-07-28T00:35:56;17.40;99.90
64396;DHT22;50717;53.360;6.290;2023-07-28T00:38:22;18.10;99.90
64396;DHT22;50717;53.360;6.290;2023-07-28T00:40:48;18.10;99.90
64396;DHT22;50717;53.360;6.290;2023-07-28T00:43:13;18.10;99.90
64396;DHT22;50717;53.360;6.290;2023-07-28T00:45:39;18.60;99.90
64396;DHT22;50717;53.360;6.290;2023-07-28T00:48:12;17.20;99.90
64396;DHT22;50717;53.360;6.290;2023-07-28T00:50:40;18.10;99.90
64396;DHT22;50717;53.360;6.290;2023-07-28T00:53:06;18.40;99.90
64396;DHT22;50717;53.360;6.290;2023-07-28T00:55:32;18.50;99.90
64396;DHT22;50717;53.360;6.290;2023-07-28T00:57:58;18.30;99.90
64396;DHT22;50717;53.360;6.290;2023-07-28T01:00:24;17.20;99.90
64396;DHT22;50717;53.360;6.290;2023-07-28T01:02:50;17.40;99.90
64396;DHT22;50717;53.360;6.290;2023-07-28T01:05:16;17.50;99.90
64396;DHT22;50717;53.360;6.290;2023-07-28T01:07:55;18.30;99.90
64396;DHT22;50717;53.360;6.290;2023-07-28T01:10:31;18.50;99.90
64396;DHT22;50717;53.360;6.290;2023-07-28T01:12:58;18.30;99.90
64396;DHT22;50717;53.360;6.290;2023-07-28T01:15:24;18.20;99.90
64396;DHT22;50717;53.360;6.290;2023-07-28T01:17:50;18.30;99.90
64396;DHT22;50717;53.360;6.290;2023-07-28T01:20:16;18.30;99.90
64396;DHT22;50717;53.360;6.290;2023-07-28T01:28:35;18.40;99.90
64396;DHT22;50717;53.360;6.290;2023-07-28T01:31:02;18.10;99.90
64396;DHT22;50717;53.360;6.290;2023-07-28T01:33:29;18.60;99.90
64396;DHT22;50717;53.360;6.290;2023-07-28T01:35:54;17.60;99.90
64396;DHT22;50717;53.360;6.290;2023-07-28T01:38:20;17.90;99.90
64396;DHT22;50717;53.360;6.290;2023-07-28T01:40:46;17.50;99.90
64396;DHT22;50717;53.360;6.290;2023-07-28T01:43:12;17.90;99.90
64396;DHT22;50717;53.360;6.290;2023-07-28T01:45:38;17.30;99.90
64396;DHT22;50717;53.360;6.290;2023-07-28T01:48:04;18.30;99.90
64396;DHT22;50717;53.360;6.290;2023-07-28T01:50:30;17.10;99.90
64396;DHT22;50717;53.360;6.290;2023-07-28T01:52:55;17.10;99.90
64396;DHT22;50717;53.360;6.290;2023-07-28T01:55:21;17.70;99.90
64396;DHT22;50717;53.360;6.290;2023-07-28T01:58:05;18.80;99.90
64396;DHT22;50717;53.360;6.290;2023-07-28T02:00:31;17.60;99.90
64396;DHT22;50717;53.360;6.290;2023-07-28T02:02:57;17.30;99.90
64396;DHT22;50717;53.360;6.290;2023-07-28T02:05:24;18.00;99.90
64396;DHT22;50717;53.360;6.290;2023-07-28T02:07:50;18.80;99.90
64396;DHT22;50717;53.360;6.290;2023-07-28T02:10:15;17.40;99.90
64396;DHT22;50717;53.360;6.290;2023-07-28T02:12:41;17.40;99.90
64396;DHT22;50717;53.360;6.290;2023-07-28T02:15:08;18.50;99.90
64396;DHT22;50717;53.360;6.290;2023-07-28T02:17:34;18.20;99.90
64396;DHT22;50717;53.360;6.290;2023-07-28T02:20:00;18.40;99.90
64396;DHT22;50717;53.360;6.290;2023-07-28T02:22:28;17.20;99.90
64396;DHT22;50717;53.360;6.290;2023-07-28T02:24:54;17.10;99.90
64396;DHT22;50717;53.360;6.290;2023-07-28T02:27:20;18.30;99.90
64396;DHT22;50717;53.360;6.290;2023-07-28T02:29:46;17.20;99.90
64396;DHT22;50717;53.360;6.290;2023-07-28T02:32:11;17.60;99.90
64396;DHT22;50717;53.360;6.290;2023-07-28T02:34:37;18.70;99.90
64396;DHT22;50717;53.360;6.290;2023-07-28T02:37:03;17.40;99.90
64396;DHT22;50717;53.360;6.290;2023-07-28T02:39:28;18.40;99.90
64396;DHT22;50717;53.360;6.290;2023-07-28T02:41:54;17.40;99.90
64396;DHT22;50717;53.360;6.290;2023-07-28T02:44:20;17.20;99.90
64396;DHT22;50717;53.360;6.290;2023-07-28T02:46:45;17.20;99.90
64396;DHT22;50717;53.360;6.290;2023-07-28T02:49:11;18.40;99.90
64396;DHT22;50717;53.360;6.290;2023-07-28T02:51:37;17.90;99.90
64396;DHT22;50717;53.360;6.290;2023-07-28T02:54:02;16.90;99.90
64396;DHT22;50717;53.360;6.290;2023-07-28T02:56:29;17.70;99.90
64396;DHT22;50717;53.360;6.290;2023-07-28T02:58:54;17.30;99.90
64396;DHT22;50717;53.360;6.290;2023-07-28T03:01:20;18.50;99.90
64396;DHT22;50717;53.360;6.290;2023-07-28T03:03:46;17.70;99.90
64396;DHT22;50717;53.360;6.290;2023-07-28T03:06:13;17.50;99.90
64396;DHT22;50717;53.360;6.290;2023-07-28T03:08:38;17.10;99.90
64396;DHT22;50717;53.360;6.290;2023-07-28T03:11:04;17.50;99.90
64396;DHT22;50717;53.360;6.290;2023-07-28T03:13:30;18.10;99.90
64396;DHT22;50717;53.360;6.290;2023-07-28T03:15:55;17.40;99.90
64396;DHT22;50717;53.360;6.290;2023-07-28T03:18:21;18.40;99.90
64396;DHT22;50717;53.360;6.290;2023-07-28T03:20:47;18.30;99.90
64396;DHT22;50717;53.360;6.290;2023-07-28T03:23:13;18.10;99.90
64396;DHT22;50717;53.360;6.290;2023-07-28T03:25:38;18.20;99.90
64396;DHT22;50717;53.360;6.290;2023-07-28T03:28:04;17.30;99.90
64396;DHT22;50717;53.360;6.290;2023-07-28T03:30:30;18.50;99.90
64396;DHT22;50717;53.360;6.290;2023-07-28T03:32:56;18.00;99.90
64396;DHT22;50717;53.360;6.290;2023-07-28T03:35:21;18.30;99.90
64396;DHT22;50717;53.360;6.290;2023-07-28T03:37:47;17.30;99.90
64396;DHT22;50717;53.360;6.290;2023-07-28T03:40:13;17.80;99.90
64396;DHT22;50717;53.360;6.290;2023-07-28T03:42:39;17.80;99.90
64396;DHT22;50717;53.360;6.290;2023-07-28T03:45:05;17.80;99.90
64396;DHT22;50717;53.360;6.290;2023-07-28T03:47:31;17.20;99.90
64396;DHT22;50717;53.360;6.290;2023-07-28T03:49:56;17.00;99.90
64396;DHT22;50717;53.360;6.290;2023-07-28T03:52:22;18.30;99.90
64396;DHT22;50717;53.360;6.290;2023-07-28T03:54:48;18.40;99.90
64396;DHT22;50717;53.360;6.290;2023-07-28T03:57:13;17.30;99.90
64396;DHT22;50717;53.360;6.290;2023-07-28T03:59:39;18.60;99.90
64396;DHT22;50717;53.360;6.290;2023-07-28T04:02:05;17.30;99.90
64396;DHT22;50717;53.360;6.290;2023-07-28T04:04:30;17.30;99.90
64396;DHT22;50717;53.360;6.290;2023-07-28T04:06:56;17.30;99.90
64396;DHT22;50717;53.360;6.290;2023-07-28T04:09:22;18.70;99.90
64396;DHT22;50717;53.360;6.290;2023-07-28T04:11:47;18.10;99.90
64396;DHT22;50717;53.360;6.290;2023-07-28T04:14:13;17.60;99.90
64396;DHT22;50717;53.360;6.290;2023-07-28T04:16:40;17.20;99.90
64396;DHT22;50717;53.360;6.290;2023-07-28T04:19:05;17.10;99.90
64396;DHT22;50717;53.360;6.290;2023-07-28T04:21:31;17.80;99.90
64396;DHT22;50717;53.360;6.290;2023-07-28T04:23:57;17.30;99.90
64396;DHT22;50717;53.360;6.290;2023-07-28T04:26:24;16.90;99.90
64396;DHT22;50717;53.360;6.290;2023-07-28T04:28:50;18.40;99.90
64396;DHT22;50717;53.360;6.290;2023-07-28T04:31:16;17.90;99.90
64396;DHT22;50717;53.360;6.290;2023-07-28T04:33:42;17.80;99.90
64396;DHT22;50717;53.360;6.290;2023-07-28T04:36:08;17.30;99.90
64396;DHT22;50717;53.360;6.290;2023-07-28T04:38:34;18.70;99.90
64396;DHT22;50717;53.360;6.290;2023-07-28T04:41:00;18.00;99.90
64396;DHT22;50717;53.360;6.290;2023-07-28T04:43:26;17.30;99.90
64396;DHT22;50717;53.360;6.290;2023-07-28T04:45:51;17.30;99.90
64396;DHT22;50717;53.360;6.290;2023-07-28T04:48:17;18.00;99.90
64396;DHT22;50717;53.360;6.290;2023-07-28T04:50:44;18.50;99.90
64396;DHT22;50717;53.360;6.290;2023-07-28T04:53:10;18.20;99.90
64396;DHT22;50717;53.360;6.290;2023-07-28T04:55:36;18.50;99.90
64396;DHT22;50717;53.360;6.290;2023-07-28T04:58:02;17.90;99.90
64396;DHT22;50717;53.360;6.290;2023-07-28T05:00:27;17.50;99.90
64396;DHT22;50717;53.360;6.290;2023-07-28T05:02:53;17.50;99.90
64396;DHT22;50717;53.360;6.290;2023-07-28T05:05:19;18.60;99.90
64396;DHT22;50717;53.360;6.290;2023-07-28T05:07:45;17.90;99.90
64396;DHT22;50717;53.360;6.290;2023-07-28T05:10:11;17.20;99.90
64396;DHT22;50717;53.360;6.290;2023-07-28T05:12:36;17.70;99.90
64396;DHT22;50717;53.360;6.290;2023-07-28T05:15:02;17.50;99.90
64396;DHT22;50717;53.360;6.290;2023-07-28T05:17:28;18.30;99.90
64396;DHT22;50717;53.360;6.290;2023-07-28T05:19:54;17.40;99.90
64396;DHT22;50717;53.360;6.290;2023-07-28T05:22:20;18.00;99.90
64396;DHT22;50717;53.360;6.290;2023-07-28T05:24:45;18.10;99.90
64396;DHT22;50717;53.360;6.290;2023-07-28T05:27:12;18.20;99.90
64396;DHT22;50717;53.360;6.290;2023-07-28T05:29:37;18.40;99.90
64396;DHT22;50717;53.360;6.290;2023-07-28T05:32:03;18.10;99.90
64396;DHT22;50717;53.360;6.290;2023-07-28T05:34:29;18.70;99.90
64396;DHT22;50717;53.360;6.290;2023-07-28T05:36:55;18.00;99.90
64396;DHT22;50717;53.360;6.290;2023-07-28T05:39:21;17.70;99.90
64396;DHT22;50717;53.360;6.290;2023-07-28T05:41:47;17.90;99.90
64396;DHT22;50717;53.360;6.290;2023-07-28T05:44:13;18.40;99.90
64396;DHT22;50717;53.360;6.290;2023-07-28T05:46:38;18.00;99.90
64396;DHT22;50717;53.360;6.290;2023-07-28T05:49:04;18.00;99.90
64396;DHT22;50717;53.360;6.290;2023-07-28T05:51:30;18.70;99.90
64396;DHT22;50717;53.360;6.290;2023-07-28T05:53:56;18.00;99.90
64396;DHT22;50717;53.360;6.290;2023-07-28T05:56:22;19.10;99.90
64396;DHT22;50717;53.360;6.290;2023-07-28T05:58:48;18.60;99.90
64396;DHT22;50717;53.360;6.290;2023-07-28T06:01:15;17.90;99.90
64396;DHT22;50717;53.360;6.290;2023-07-28T06:03:40;17.90;99.90
64396;DHT22;50717;53.360;6.290;2023-07-28T06:06:06;18.00;99.90
64396;DHT22;50717;53.360;6.290;2023-07-28T06:08:33;18.10;99.90
64396;DHT22;50717;53.360;6.290;2023-07-28T06:10:59;17.80;99.90
64396;DHT22;50717;53.360;6.290;2023-07-28T06:13:25;18.30;99.90
64396;DHT22;50717;53.360;6.290;2023-07-28T06:15:53;17.90;99.90
64396;DHT22;50717;53.360;6.290;2023-07-28T06:18:19;18.60;99.90
64396;DHT22;50717;53.360;6.290;2023-07-28T06:20:46;18.00;99.90
64396;DHT22;50717;53.360;6.290;2023-07-28T06:23:11;18.70;99.90
64396;DHT22;50717;53.360;6.290;2023-07-28T06:25:37;18.70;99.90
64396;DHT22;50717;53.360;6.290;2023-07-28T06:28:09;18.80;99.90
64396;DHT22;50717;53.360;6.290;2023-07-28T06:30:35;18.80;99.90
64396;DHT22;50717;53.360;6.290;2023-07-28T06:33:00;17.90;99.90
64396;DHT22;50717;53.360;6.290;2023-07-28T06:35:26;18.40;99.90
64396;DHT22;50717;53.360;6.290;2023-07-28T06:37:53;18.80;99.90
64396;DHT22;50717;53.360;6.290;2023-07-28T06:40:18;18.20;99.90
64396;DHT22;50717;53.360;6.290;2023-07-28T06:42:44;18.60;99.90
64396;DHT22;50717;53.360;6.290;2023-07-28T06:45:10;18.30;99.90
64396;DHT22;50717;53.360;6.290;2023-07-28T06:47:36;18.40;99.90
64396;DHT22;50717;53.360;6.290;2023-07-28T06:50:01;18.50;99.90
64396;DHT22;50717;53.360;6.290;2023-07-28T06:52:27;18.20;99.90
64396;DHT22;50717;53.360;6.290;2023-07-28T06:54:53;18.30;99.90
64396;DHT22;50717;53.360;6.290;2023-07-28T06:57:20;19.00;99.90
64396;DHT22;50717;53.360;6.290;2023-07-28T06:59:46;18.70;99.90
64396;DHT22;50717;53.360;6.290;2023-07-28T07:02:12;18.80;99.90
64396;DHT22;50717;53.360;6.290;2023-07-28T07:04:38;18.90;99.90
64396;DHT22;50717;53.360;6.290;2023-07-28T07:07:04;18.90;99.90
64396;DHT22;50717;53.360;6.290;2023-07-28T07:09:29;18.50;99.90
64396;DHT22;50717;53.360;6.290;2023-07-28T07:11:55;18.60;99.90
64396;DHT22;50717;53.360;6.290;2023-07-28T07:14:21;18.70;99.90
64396;DHT22;50717;53.360;6.290;2023-07-28T07:16:48;19.00;99.90
64396;DHT22;50717;53.360;6.290;2023-07-28T07:19:14;18.60;99.90
64396;DHT22;50717;53.360;6.290;2023-07-28T07:21:41;18.80;99.90
64396;DHT22;50717;53.360;6.290;2023-07-28T07:24:07;18.60;99.90
64396;DHT22;50717;53.360;6.290;2023-07-28T07:26:33;19.10;99.90
64396;DHT22;50717;53.360;6.290;2023-07-28T07:28:58;18.60;99.90
64396;DHT22;50717;53.360;6.290;2023-07-28T07:31:24;18.90;99.90
64396;DHT22;50717;53.360;6.290;2023-07-28T07:33:50;19.20;99.90
64396;DHT22;50717;53.360;6.290;2023-07-28T07:36:17;19.10;99.90
64396;DHT22;50717;53.360;6.290;2023-07-28T07:38:43;18.90;99.90
64396;DHT22;50717;53.360;6.290;2023-07-28T07:41:15;19.00;99.90
64396;DHT22;50717;53.360;6.290;2023-07-28T07:43:47;19.30;99.90
64396;DHT22;50717;53.360;6.290;2023-07-28T07:46:14;19.30;99.90
64396;DHT22;50717;53.360;6.290;2023-07-28T07:48:40;18.60;99.90
64396;DHT22;50717;53.360;6.290;2023-07-28T07:51:07;18.80;99.90
64396;DHT22;50717;53.360;6.290;2023-07-28T07:53:33;18.90;99.90
64396;DHT22;50717;53.360;6.290;2023-07-28T07:55:58;19.40;99.90
64396;DHT22;50717;53.360;6.290;2023-07-28T07:58:24;18.60;99.90
64396;DHT22;50717;53.360;6.290;2023-07-28T08:00:50;18.70;99.90
64396;DHT22;50717;53.360;6.290;2023-07-28T08:03:15;18.60;99.90
64396;DHT22;50717;53.360;6.290;2023-07-28T08:05:41;18.90;99.90
64396;DHT22;50717;53.360;6.290;2023-07-28T08:08:07;18.60;99.90
64396;DHT22;50717;53.360;6.290;2023-07-28T08:10:33;19.20;99.90
64396;DHT22;50717;53.360;6.290;2023-07-28T08:12:59;18.80;99.90
64396;DHT22;50717;53.360;6.290;2023-07-28T08:15:25;18.90;99.90
64396;DHT22;50717;53.360;6.290;2023-07-28T08:17:51;19.20;99.90
64396;DHT22;50717;53.360;6.290;2023-07-28T08:20:17;19.40;99.90
64396;DHT22;50717;53.360;6.290;2023-07-28T08:22:43;19.40;99.90
64396;DHT22;50717;53.360;6.290;2023-07-28T08:25:09;19.50;99.90
64396;DHT22;50717;53.360;6.290;2023-07-28T08:27:35;19.50;99.90
64396;DHT22;50717;53.360;6.290;2023-07-28T08:30:01;19.70;99.90
64396;DHT22;50717;53.360;6.290;2023-07-28T08:32:26;19.60;99.90
64396;DHT22;50717;53.360;6.290;2023-07-28T08:34:53;20.20;99.90
64396;DHT22;50717;53.360;6.290;2023-07-28T08:37:19;19.80;99.90
64396;DHT22;50717;53.360;6.290;2023-07-28T08:39:45;20.00;99.90
64396;DHT22;50717;53.360;6.290;2023-07-28T08:42:11;20.00;99.90
64396;DHT22;50717;53.360;6.290;2023-07-28T08:44:36;20.10;99.90
64396;DHT22;50717;53.360;6.290;2023-07-28T08:47:04;20.10;99.90
64396;DHT22;50717;53.360;6.290;2023-07-28T08:49:30;19.80;99.90
64396;DHT22;50717;53.360;6.290;2023-07-28T08:52:01;20.00;99.90
64396;DHT22;50717;53.360;6.290;2023-07-28T08:54:28;19.60;99.90
64396;DHT22;50717;53.360;6.290;2023-07-28T08:56:53;19.90;99.90
64396;DHT22;50717;53.360;6.290;2023-07-28T08:59:27;20.00;99.90
64396;DHT22;50717;53.360;6.290;2023-07-28T09:01:54;20.00;99.90
64396;DHT22;50717;53.360;6.290;2023-07-28T09:04:21;19.80;99.90
64396;DHT22;50717;53.360;6.290;2023-07-28T09:06:48;20.10;99.90
64396;DHT22;50717;53.360;6.290;2023-07-28T09:09:15;19.50;99.90
64396;DHT22;50717;53.360;6.290;2023-07-28T09:11:49;19.70;99.90
64396;DHT22;50717;53.360;6.290;2023-07-28T09:14:16;19.90;99.90
64396;DHT22;50717;53.360;6.290;2023-07-28T09:16:45;19.90;99.90
64396;DHT22;50717;53.360;6.290;2023-07-28T09:19:11;19.70;99.90
64396;DHT22;50717;53.360;6.290;2023-07-28T09:21:38;20.00;99.90
64396;DHT22;50717;53.360;6.290;2023-07-28T09:24:05;20.00;99.90
64396;DHT22;50717;53.360;6.290;2023-07-28T09:26:45;20.00;99.90
64396;DHT22;50717;53.360;6.290;2023-07-28T09:29:18;20.00;99.90
64396;DHT22;50717;53.360;6.290;2023-07-28T09:31:45;20.20;99.90
64396;DHT22;50717;53.360;6.290;2023-07-28T09:34:12;20.30;99.90
64396;DHT22;50717;53.360;6.290;2023-07-28T09:36:39;20.40;99.90
64396;DHT22;50717;53.360;6.290;2023-07-28T09:39:06;20.40;99.90
64396;DHT22;50717;53.360;6.290;2023-07-28T09:41:36;20.20;99.90
64396;DHT22;50717;53.360;6.290;2023-07-28T09:44:04;22.20;99.90
64396;DHT22;50717;53.360;6.290;2023-07-28T09:46:33;20.40;99.90
64396;DHT22;50717;53.360;6.290;2023-07-28T09:48:59;20.10;99.90
64396;DHT22;50717;53.360;6.290;2023-07-28T09:51:31;20.10;99.90
64396;DHT22;50717;53.360;6.290;2023-07-28T09:54:23;19.90;99.90
64396;DHT22;50717;53.360;6.290;2023-07-28T09:56:58;19.70;99.90
64396;DHT22;50717;53.360;6.290;2023-07-28T09:59:38;20.00;99.90
64396;DHT22;50717;53.360;6.290;2023-07-28T10:02:05;19.60;99.90
64396;DHT22;50717;53.360;6.290;2023-07-28T10:04:32;20.40;99.90
64396;DHT22;50717;53.360;6.290;2023-07-28T10:06:58;20.20;99.90
64396;DHT22;50717;53.360;6.290;2023-07-28T10:09:26;20.30;99.90
64396;DHT22;50717;53.360;6.290;2023-07-28T10:11:53;20.90;99.90
64396;DHT22;50717;53.360;6.290;2023-07-28T10:14:50;20.60;99.90
64396;DHT22;50717;53.360;6.290;2023-07-28T10:17:33;20.50;99.90
64396;DHT22;50717;53.360;6.290;2023-07-28T10:20:04;20.90;99.90
64396;DHT22;50717;53.360;6.290;2023-07-28T10:22:45;21.40;99.90
64396;DHT22;50717;53.360;6.290;2023-07-28T10:25:11;21.20;99.90
64396;DHT22;50717;53.360;6.290;2023-07-28T10:27:38;21.40;99.90
64396;DHT22;50717;53.360;6.290;2023-07-28T10:30:13;22.00;99.90
64396;DHT22;50717;53.360;6.290;2023-07-28T10:32:41;21.80;99.90
64396;DHT22;50717;53.360;6.290;2023-07-28T10:37:45;21.30;99.90
64396;DHT22;50717;53.360;6.290;2023-07-28T10:40:34;21.10;99.90
64396;DHT22;50717;53.360;6.290;2023-07-28T10:43:01;20.80;99.90
64396;DHT22;50717;53.360;6.290;2023-07-28T10:45:29;21.00;99.90
64396;DHT22;50717;53.360;6.290;2023-07-28T10:47:56;21.50;99.90
64396;DHT22;50717;53.360;6.290;2023-07-28T10:50:23;21.50;99.90
64396;DHT22;50717;53.360;6.290;2023-07-28T10:52:49;21.50;99.90
64396;DHT22;50717;53.360;6.290;2023-07-28T10:55:16;21.50;99.90
64396;DHT22;50717;53.360;6.290;2023-07-28T10:57:43;21.80;99.90
64396;DHT22;50717;53.360;6.290;2023-07-28T11:00:11;22.00;99.90
64396;DHT22;50717;53.360;6.290;2023-07-28T11:02:44;21.90;99.90
64396;DHT22;50717;53.360;6.290;2023-07-28T11:05:12;22.40;99.90
64396;DHT22;50717;53.360;6.290;2023-07-28T11:07:43;22.00;99.90
64396;DHT22;50717;53.360;6.290;2023-07-28T11:10:10;22.00;99.90
64396;DHT22;50717;53.360;6.290;2023-07-28T11:12:48;22.10;99.90
64396;DHT22;50717;53.360;6.290;2023-07-28T11:15:15;22.00;99.90
64396;DHT22;50717;53.360;6.290;2023-07-28T11:17:47;22.30;99.90
64396;DHT22;50717;53.360;6.290;2023-07-28T11:20:31;21.80;99.90
64396;DHT22;50717;53.360;6.290;2023-07-28T11:22:58;22.20;99.90
64396;DHT22;50717;53.360;6.290;2023-07-28T11:25:27;22.50;99.90
64396;DHT22;50717;53.360;6.290;2023-07-28T11:27:53;23.10;99.90
64396;DHT22;50717;53.360;6.290;2023-07-28T11:30:19;23.30;99.90
64396;DHT22;50717;53.360;6.290;2023-07-28T11:32:47;22.90;99.90
64396;DHT22;50717;53.360;6.290;2023-07-28T11:35:15;22.90;99.90
64396;DHT22;50717;53.360;6.290;2023-07-28T11:37:43;22.80;99.90
64396;DHT22;50717;53.360;6.290;2023-07-28T11:40:10;23.00;99.90
64396;DHT22;50717;53.360;6.290;2023-07-28T11:42:51;23.20;99.90
64396;DHT22;50717;53.360;6.290;2023-07-28T11:45:18;22.90;99.90
64396;DHT22;50717;53.360;6.290;2023-07-28T11:50:27;23.10;99.90
64396;DHT22;50717;53.360;6.290;2023-07-28T11:52:53;23.10;99.90
64396;DHT22;50717;53.360;6.290;2023-07-28T11:55:20;23.00;99.90
64396;DHT22;50717;53.360;6.290;2023-07-28T11:57:47;22.90;99.90
64396;DHT22;50717;53.360;6.290;2023-07-28T12:00:13;23.10;99.90
64396;DHT22;50717;53.360;6.290;2023-07-28T12:02:42;22.70;99.90
64396;DHT22;50717;53.360;6.290;2023-07-28T12:05:15;23.10;99.90
64396;DHT22;50717;53.360;6.290;2023-07-28T12:07:46;23.40;99.90
64396;DHT22;50717;53.360;6.290;2023-07-28T12:10:12;23.40;99.90
64396;DHT22;50717;53.360;6.290;2023-07-28T12:12:44;24.00;99.90
64396;DHT22;50717;53.360;6.290;2023-07-28T12:15:20;23.60;99.90
64396;DHT22;50717;53.360;6.290;2023-07-28T12:20:44;23.60;99.90
64396;DHT22;50717;53.360;6.290;2023-07-28T12:23:16;24.00;99.90
64396;DHT22;50717;53.360;6.290;2023-07-28T12:25:42;23.80;99.90
64396;DHT22;50717;53.360;6.290;2023-07-28T12:28:08;24.10;99.90
64396;DHT22;50717;53.360;6.290;2023-07-28T12:30:35;24.00;99.90
64396;DHT22;50717;53.360;6.290;2023-07-28T12:33:00;24.00;99.90
64396;DHT22;50717;53.360;6.290;2023-07-28T12:35:27;23.70;99.90
64396;DHT22;50717;53.360;6.290;2023-07-28T12:38:06;23.90;99.90
64396;DHT22;50717;53.360;6.290;2023-07-28T12:40:33;24.10;99.90
64396;DHT22;50717;53.360;6.290;2023-07-28T12:43:01;23.90;99.90
64396;DHT22;50717;53.360;6.290;2023-07-28T12:45:27;23.50;99.90
64396;DHT22;50717;53.360;6.290;2023-07-28T12:47:53;23.80;99.90
64396;DHT22;50717;53.360;6.290;2023-07-28T12:50:20;24.10;99.90
64396;DHT22;50717;53.360;6.290;2023-07-28T12:52:47;24.00;99.90
64396;DHT22;50717;53.360;6.290;2023-07-28T12:55:13;24.10;99.90
64396;DHT22;50717;53.360;6.290;2023-07-28T12:57:39;24.10;99.90
64396;DHT22;50717;53.360;6.290;2023-07-28T13:00:06;24.20;99.90
64396;DHT22;50717;53.360;6.290;2023-07-28T13:02:42;23.80;99.90
64396;DHT22;50717;53.360;6.290;2023-07-28T13:05:09;23.60;99.90
64396;DHT22;50717;53.360;6.290;2023-07-28T13:07:38;24.00;99.90
64396;DHT22;50717;53.360;6.290;2023-07-28T13:10:07;24.40;99.90
64396;DHT22;50717;53.360;6.290;2023-07-28T13:12:32;24.40;99.90
64396;DHT22;50717;53.360;6.290;2023-07-28T13:14:58;24.70;99.90
64396;DHT22;50717;53.360;6.290;2023-07-28T13:17:24;24.80;99.90
64396;DHT22;50717;53.360;6.290;2023-07-28T13:19:50;24.80;99.90
64396;DHT22;50717;53.360;6.290;2023-07-28T13:22:15;24.90;99.90
64396;DHT22;50717;53.360;6.290;2023-07-28T13:24:41;24.30;99.90
64396;DHT22;50717;53.360;6.290;2023-07-28T13:27:09;24.70;99.90
64396;DHT22;50717;53.360;6.290;2023-07-28T13:29:35;24.80;99.90
64396;DHT22;50717;53.360;6.290;2023-07-28T13:32:00;24.80;99.90
64396;DHT22;50717;53.360;6.290;2023-07-28T13:34:27;24.30;99.90
64396;DHT22;50717;53.360;6.290;2023-07-28T13:36:54;24.20;99.90
64396;DHT22;50717;53.360;6.290;2023-07-28T13:39:20;24.10;99.90
64396;DHT22;50717;53.360;6.290;2023-07-28T13:41:46;24.80;99.90
64396;DHT22;50717;53.360;6.290;2023-07-28T13:44:12;24.40;99.90
64396;DHT22;50717;53.360;6.290;2023-07-28T13:46:37;24.20;99.90
64396;DHT22;50717;53.360;6.290;2023-07-28T13:49:03;24.10;99.90
64396;DHT22;50717;53.360;6.290;2023-07-28T13:51:29;23.90;99.90
64396;DHT22;50717;53.360;6.290;2023-07-28T13:53:55;23.80;99.90
64396;DHT22;50717;53.360;6.290;2023-07-28T13:56:20;24.00;99.90
64396;DHT22;50717;53.360;6.290;2023-07-28T13:58:46;23.70;99.90
64396;DHT22;50717;53.360;6.290;2023-07-28T14:01:12;23.60;99.90
64396;DHT22;50717;53.360;6.290;2023-07-28T14:03:37;23.80;99.90
64396;DHT22;50717;53.360;6.290;2023-07-28T14:06:03;23.80;99.90
64396;DHT22;50717;53.360;6.290;2023-07-28T14:08:29;23.90;99.90
64396;DHT22;50717;53.360;6.290;2023-07-28T14:10:55;24.30;99.90
64396;DHT22;50717;53.360;6.290;2023-07-28T14:13:21;24.60;99.90
64396;DHT22;50717;53.360;6.290;2023-07-28T14:15:47;24.50;99.90
64396;DHT22;50717;53.360;6.290;2023-07-28T14:18:13;24.60;99.90
64396;DHT22;50717;53.360;6.290;2023-07-28T14:20:39;24.20;99.90
64396;DHT22;50717;53.360;6.290;2023-07-28T14:23:27;24.10;99.90
64396;DHT22;50717;53.360;6.290;2023-07-28T14:25:53;24.00;99.90
64396;DHT22;50717;53.360;6.290;2023-07-28T14:28:20;24.90;99.90
64396;DHT22;50717;53.360;6.290;2023-07-28T14:30:46;25.60;99.90
64396;DHT22;50717;53.360;6.290;2023-07-28T14:33:16;25.40;99.90
64396;DHT22;50717;53.360;6.290;2023-07-28T14:35:44;25.50;99.90
64396;DHT22;50717;53.360;6.290;2023-07-28T14:38:11;26.10;99.90
64396;DHT22;50717;53.360;6.290;2023-07-28T14:40:37;26.20;99.90
64396;DHT22;50717;53.360;6.290;2023-07-28T14:43:03;25.30;99.90
64396;DHT22;50717;53.360;6.290;2023-07-28T14:45:30;25.60;99.90
64396;DHT22;50717;53.360;6.290;2023-07-28T14:47:55;25.50;99.90
64396;DHT22;50717;53.360;6.290;2023-07-28T14:50:21;25.60;99.90
64396;DHT22;50717;53.360;6.290;2023-07-28T14:52:48;26.00;99.90
64396;DHT22;50717;53.360;6.290;2023-07-28T14:55:14;26.30;99.90
64396;DHT22;50717;53.360;6.290;2023-07-28T14:57:40;25.80;99.90
64396;DHT22;50717;53.360;6.290;2023-07-28T15:00:06;26.30;99.90
64396;DHT22;50717;53.360;6.290;2023-07-28T15:02:33;26.70;99.90
64396;DHT22;50717;53.360;6.290;2023-07-28T15:04:59;26.80;99.90
64396;DHT22;50717;53.360;6.290;2023-07-28T15:07:25;26.90;99.90
64396;DHT22;50717;53.360;6.290;2023-07-28T15:09:50;26.80;99.90
64396;DHT22;50717;53.360;6.290;2023-07-28T15:12:16;26.70;99.90
64396;DHT22;50717;53.360;6.290;2023-07-28T15:14:41;26.50;99.90
64396;DHT22;50717;53.360;6.290;2023-07-28T15:17:07;27.20;99.90
64396;DHT22;50717;53.360;6.290;2023-07-28T15:19:33;26.90;99.90
64396;DHT22;50717;53.360;6.290;2023-07-28T15:21:59;26.60;99.90
64396;DHT22;50717;53.360;6.290;2023-07-28T15:24:24;27.40;99.90
64396;DHT22;50717;53.360;6.290;2023-07-28T15:26:50;27.10;99.90
64396;DHT22;50717;53.360;6.290;2023-07-28T15:29:18;27.20;99.90
64396;DHT22;50717;53.360;6.290;2023-07-28T15:31:43;27.40;99.90
64396;DHT22;50717;53.360;6.290;2023-07-28T15:34:09;27.20;99.90
64396;DHT22;50717;53.360;6.290;2023-07-28T15:36:35;26.80;99.90
64396;DHT22;50717;53.360;6.290;2023-07-28T15:39:01;26.90;99.90
64396;DHT22;50717;53.360;6.290;2023-07-28T15:41:26;26.60;99.90
64396;DHT22;50717;53.360;6.290;2023-07-28T15:43:52;26.20;99.90